sensor_id;sensor_type;location;lat;lon;timestamp;pressure;altitude;pressure_sealevel;temperature;humidity
66176;BME280;52977;44.816;20.538;2023-02-15T00:01:45;101469.56;;;5.85;80.61
66176;BME280;52977;44.816;20.538;2023-02-15T00:04:14;101453.16;;;5.74;80.02
66176;BME280;52977;44.816;20.538;2023-02-15T00:06:40;101481.91;;;5.92;79.87
66176;BME280;52977;44.816;20.538;2023-02-15T00:09:11;101492.22;;;5.95;80.23
66176;BME280;52977;44.816;20.538;2023-02-15T00:11:39;101485.66;;;5.91;80.54
66176;BME280;52977;44.816;20.538;2023-02-15T00:14:07;101492.47;;;5.94;80.52
66176;BME280;52977;44.816;20.538;2023-02-15T00:16:34;101444.13;;;5.69;80.23
66176;BME280;52977;44.816;20.538;2023-02-15T00:19:00;101476.06;;;5.84;80.19
66176;BME280;52977;44.816;20.538;2023-02-15T00:21:31;101492.00;;;5.80;80.74
66176;BME280;52977;44.816;20.538;2023-02-15T00:24:00;101489.44;;;5.73;81.22
66176;BME280;52977;44.816;20.538;2023-02-15T00:26:27;101396.66;;;5.15;81.04
66176;BME280;52977;44.816;20.538;2023-02-15T00:28:54;101484.44;;;5.82;80.67
66176;BME280;52977;44.816;20.538;2023-02-15T00:31:21;101400.59;;;5.24;80.73
66176;BME280;52977;44.816;20.538;2023-02-15T00:33:47;101462.44;;;5.61;81.10
66176;BME280;52977;44.816;20.538;2023-02-15T00:36:13;101480.84;;;5.76;80.58
66176;BME280;52977;44.816;20.538;2023-02-15T00:38:40;101474.03;;;5.74;80.26
66176;BME280;52977;44.816;20.538;2023-02-15T00:41:07;101488.97;;;5.76;80.15
66176;BME280;52977;44.816;20.538;2023-02-15T00:43:35;101482.81;;;5.81;79.80
66176;BME280;52977;44.816;20.538;2023-02-15T00:46:03;101455.97;;;5.62;80.20
66176;BME280;52977;44.816;20.538;2023-02-15T00:48:29;101381.13;;;5.10;79.73
66176;BME280;52977;44.816;20.538;2023-02-15T00:50:57;101475.22;;;5.83;79.58
66176;BME280;52977;44.816;20.538;2023-02-15T00:53:25;101439.69;;;5.62;79.51
66176;BME280;52977;44.816;20.538;2023-02-15T00:55:52;101444.53;;;5.60;79.52
66176;BME280;52977;44.816;20.538;2023-02-15T00:58:19;101473.03;;;5.80;79.51
66176;BME280;52977;44.816;20.538;2023-02-15T01:00:46;101359.72;;;5.09;78.96
66176;BME280;52977;44.816;20.538;2023-02-15T01:03:14;101456.19;;;5.78;79.21
66176;BME280;52977;44.816;20.538;2023-02-15T01:05:41;101388.16;;;5.23;79.15
66176;BME280;52977;44.816;20.538;2023-02-15T01:08:08;101473.53;;;5.77;79.21
66176;BME280;52977;44.816;20.538;2023-02-15T01:10:37;101423.75;;;5.49;79.09
66176;BME280;52977;44.816;20.538;2023-02-15T01:13:03;101486.31;;;5.81;79.12
66176;BME280;52977;44.816;20.538;2023-02-15T01:15:29;101468.50;;;5.86;78.71
66176;BME280;52977;44.816;20.538;2023-02-15T01:17:56;101422.09;;;5.48;78.80
66176;BME280;52977;44.816;20.538;2023-02-15T01:20:27;101470.22;;;5.75;78.58
66176;BME280;52977;44.816;20.538;2023-02-15T01:22:54;101444.03;;;5.63;79.15
66176;BME280;52977;44.816;20.538;2023-02-15T01:25:22;101475.47;;;5.81;79.22
66176;BME280;52977;44.816;20.538;2023-02-15T01:27:48;101431.56;;;5.62;79.03
66176;BME280;52977;44.816;20.538;2023-02-15T01:30:15;101453.75;;;5.76;78.98
66176;BME280;52977;44.816;20.538;2023-02-15T01:32:42;101445.28;;;5.73;79.41
66176;BME280;52977;44.816;20.538;2023-02-15T01:35:08;101451.19;;;5.70;78.99
66176;BME280;52977;44.816;20.538;2023-02-15T01:37:35;101413.47;;;5.51;78.91
66176;BME280;52977;44.816;20.538;2023-02-15T01:40:04;101452.41;;;5.79;78.94
66176;BME280;52977;44.816;20.538;2023-02-15T01:42:30;101345.63;;;5.07;79.11
66176;BME280;52977;44.816;20.538;2023-02-15T01:44:59;101410.78;;;5.51;79.28
66176;BME280;52977;44.816;20.538;2023-02-15T01:47:36;101423.44;;;5.62;79.01
66176;BME280;52977;44.816;20.538;2023-02-15T01:52:37;101316.41;;;4.92;78.80
66176;BME280;52977;44.816;20.538;2023-02-15T01:55:06;101448.31;;;5.76;79.12
66176;BME280;52977;44.816;20.538;2023-02-15T01:57:32;101424.25;;;5.63;79.12
66176;BME280;52977;44.816;20.538;2023-02-15T02:00:03;101453.91;;;5.70;79.21
66176;BME280;52977;44.816;20.538;2023-02-15T02:02:38;101314.34;;;4.82;79.23
66176;BME280;52977;44.816;20.538;2023-02-15T02:05:06;101399.13;;;5.34;79.78
66176;BME280;52977;44.816;20.538;2023-02-15T02:07:36;101428.78;;;5.57;79.27
66176;BME280;52977;44.816;20.538;2023-02-15T02:10:05;101444.63;;;5.65;79.63
66176;BME280;52977;44.816;20.538;2023-02-15T02:12:33;101392.00;;;5.27;79.50
66176;BME280;52977;44.816;20.538;2023-02-15T02:15:01;101449.53;;;5.69;79.33
66176;BME280;52977;44.816;20.538;2023-02-15T02:23:21;101445.78;;;5.70;79.17
66176;BME280;52977;44.816;20.538;2023-02-15T02:34:31;101452.00;;;5.70;78.48
66176;BME280;52977;44.816;20.538;2023-02-15T02:47:51;101439.75;;;5.68;78.67
66176;BME280;52977;44.816;20.538;2023-02-15T02:50:25;101421.72;;;5.56;78.54
66176;BME280;52977;44.816;20.538;2023-02-15T02:52:54;101409.72;;;5.52;78.96
66176;BME280;52977;44.816;20.538;2023-02-15T02:58:20;101415.38;;;5.51;78.65
66176;BME280;52977;44.816;20.538;2023-02-15T03:00:53;101422.44;;;5.52;78.67
66176;BME280;52977;44.816;20.538;2023-02-15T03:03:26;101440.75;;;5.61;78.99
66176;BME280;52977;44.816;20.538;2023-02-15T03:05:59;101385.50;;;5.28;78.78
66176;BME280;52977;44.816;20.538;2023-02-15T03:08:31;101444.28;;;5.62;78.46
66176;BME280;52977;44.816;20.538;2023-02-15T03:11:00;101423.84;;;5.54;78.67
66176;BME280;52977;44.816;20.538;2023-02-15T03:13:29;101435.59;;;5.60;78.49
66176;BME280;52977;44.816;20.538;2023-02-15T03:15:56;101288.00;;;4.60;78.21
66176;BME280;52977;44.816;20.538;2023-02-15T03:18:45;101443.88;;;5.53;78.22
66176;BME280;52977;44.816;20.538;2023-02-15T03:24:19;101427.53;;;5.48;77.80
66176;BME280;52977;44.816;20.538;2023-02-15T03:26:50;101394.72;;;5.27;77.93
66176;BME280;52977;44.816;20.538;2023-02-15T03:29:24;101441.72;;;5.55;78.10
66176;BME280;52977;44.816;20.538;2023-02-15T03:31:57;101424.75;;;5.43;78.03
66176;BME280;52977;44.816;20.538;2023-02-15T03:34:23;101382.88;;;5.17;77.87
66176;BME280;52977;44.816;20.538;2023-02-15T03:37:17;101441.41;;;5.52;77.74
66176;BME280;52977;44.816;20.538;2023-02-15T03:42:32;101441.06;;;5.48;77.78
66176;BME280;52977;44.816;20.538;2023-02-15T03:45:08;101443.78;;;5.48;78.00
66176;BME280;52977;44.816;20.538;2023-02-15T03:47:38;101457.06;;;5.33;78.08
66176;BME280;52977;44.816;20.538;2023-02-15T03:50:15;101358.91;;;4.91;78.22
66176;BME280;52977;44.816;20.538;2023-02-15T03:53:04;101424.00;;;5.30;78.07
66176;BME280;52977;44.816;20.538;2023-02-15T03:55:31;101423.75;;;5.32;77.93
66176;BME280;52977;44.816;20.538;2023-02-15T03:57:59;101380.56;;;5.08;78.13
66176;BME280;52977;44.816;20.538;2023-02-15T04:01:22;101404.28;;;5.18;78.26
66176;BME280;52977;44.816;20.538;2023-02-15T04:04:07;101438.50;;;5.41;77.79
66176;BME280;52977;44.816;20.538;2023-02-15T04:06:35;101434.19;;;5.40;77.70
66176;BME280;52977;44.816;20.538;2023-02-15T04:09:00;101380.22;;;5.05;77.79
66176;BME280;52977;44.816;20.538;2023-02-15T04:11:45;101432.78;;;5.38;77.84
66176;BME280;52977;44.816;20.538;2023-02-15T04:14:11;101391.41;;;5.08;77.75
66176;BME280;52977;44.816;20.538;2023-02-15T04:16:55;101448.69;;;5.34;78.15
66176;BME280;52977;44.816;20.538;2023-02-15T04:19:21;101315.34;;;4.47;78.07
66176;BME280;52977;44.816;20.538;2023-02-15T04:22:05;101445.16;;;5.34;77.97
66176;BME280;52977;44.816;20.538;2023-02-15T04:24:49;101438.44;;;5.19;77.98
66176;BME280;52977;44.816;20.538;2023-02-15T04:27:33;101477.06;;;5.31;78.02
66176;BME280;52977;44.816;20.538;2023-02-15T04:29:59;101452.94;;;5.30;77.83
66176;BME280;52977;44.816;20.538;2023-02-15T04:32:25;101457.56;;;5.29;77.95
66176;BME280;52977;44.816;20.538;2023-02-15T04:34:52;101352.44;;;4.64;78.03
66176;BME280;52977;44.816;20.538;2023-02-15T04:37:19;101452.13;;;5.29;77.96
66176;BME280;52977;44.816;20.538;2023-02-15T04:39:46;101460.00;;;5.31;77.95
66176;BME280;52977;44.816;20.538;2023-02-15T04:42:12;101354.06;;;4.65;77.72
66176;BME280;52977;44.816;20.538;2023-02-15T04:44:38;101449.34;;;5.24;78.00
66176;BME280;52977;44.816;20.538;2023-02-15T04:47:04;101451.22;;;5.24;78.10
66176;BME280;52977;44.816;20.538;2023-02-15T04:49:30;101395.13;;;4.90;78.01
66176;BME280;52977;44.816;20.538;2023-02-15T04:51:56;101457.94;;;5.21;78.36
66176;BME280;52977;44.816;20.538;2023-02-15T04:54:23;101463.25;;;5.16;78.33
66176;BME280;52977;44.816;20.538;2023-02-15T04:56:49;101415.72;;;4.91;78.05
66176;BME280;52977;44.816;20.538;2023-02-15T04:59:16;101422.06;;;4.97;78.18
66176;BME280;52977;44.816;20.538;2023-02-15T05:01:42;101447.25;;;5.14;77.98
66176;BME280;52977;44.816;20.538;2023-02-15T05:04:09;101451.88;;;5.14;78.21
66176;BME280;52977;44.816;20.538;2023-02-15T05:06:35;101451.06;;;5.13;77.83
66176;BME280;52977;44.816;20.538;2023-02-15T05:09:01;101388.38;;;4.76;78.10
66176;BME280;52977;44.816;20.538;2023-02-15T05:11:27;101315.44;;;4.23;77.83
66176;BME280;52977;44.816;20.538;2023-02-15T05:13:54;101461.78;;;5.08;77.29
66176;BME280;52977;44.816;20.538;2023-02-15T05:16:20;101464.72;;;5.07;77.59
66176;BME280;52977;44.816;20.538;2023-02-15T05:18:46;101466.84;;;5.05;77.81
66176;BME280;52977;44.816;20.538;2023-02-15T05:21:12;101470.63;;;5.04;78.41
66176;BME280;52977;44.816;20.538;2023-02-15T05:23:39;101454.59;;;5.02;78.48
66176;BME280;52977;44.816;20.538;2023-02-15T05:26:05;101463.81;;;5.01;78.69
66176;BME280;52977;44.816;20.538;2023-02-15T05:28:49;101464.06;;;5.00;78.19
66176;BME280;52977;44.816;20.538;2023-02-15T05:31:19;101399.72;;;4.61;78.33
66176;BME280;52977;44.816;20.538;2023-02-15T05:33:45;101426.34;;;4.81;78.04
66176;BME280;52977;44.816;20.538;2023-02-15T05:36:12;101441.13;;;4.90;78.18
66176;BME280;52977;44.816;20.538;2023-02-15T05:38:39;101469.53;;;5.05;77.67
66176;BME280;52977;44.816;20.538;2023-02-15T05:41:06;101461.81;;;4.96;77.76
66176;BME280;52977;44.816;20.538;2023-02-15T05:43:33;101474.97;;;5.05;78.03
66176;BME280;52977;44.816;20.538;2023-02-15T05:46:00;101445.78;;;4.78;77.96
66176;BME280;52977;44.816;20.538;2023-02-15T05:48:27;101454.94;;;4.77;78.21
66176;BME280;52977;44.816;20.538;2023-02-15T05:50:58;101420.06;;;4.64;77.99
66176;BME280;52977;44.816;20.538;2023-02-15T05:53:25;101446.38;;;4.80;78.01
66176;BME280;52977;44.816;20.538;2023-02-15T05:55:51;101477.66;;;5.05;77.80
66176;BME280;52977;44.816;20.538;2023-02-15T05:58:16;101480.63;;;5.03;77.61
66176;BME280;52977;44.816;20.538;2023-02-15T06:00:42;101396.22;;;4.49;78.23
66176;BME280;52977;44.816;20.538;2023-02-15T06:03:09;101481.47;;;5.04;78.33
66176;BME280;52977;44.816;20.538;2023-02-15T06:05:35;101486.63;;;5.05;78.10
66176;BME280;52977;44.816;20.538;2023-02-15T06:08:01;101478.06;;;4.96;78.01
66176;BME280;52977;44.816;20.538;2023-02-15T06:10:27;101500.16;;;5.05;78.26
66176;BME280;52977;44.816;20.538;2023-02-15T06:12:53;101494.25;;;5.08;77.47
66176;BME280;52977;44.816;20.538;2023-02-15T06:15:20;101485.13;;;4.97;77.76
66176;BME280;52977;44.816;20.538;2023-02-15T06:17:46;101436.38;;;4.69;78.08
66176;BME280;52977;44.816;20.538;2023-02-15T06:20:12;101436.38;;;4.69;77.80
66176;BME280;52977;44.816;20.538;2023-02-15T06:22:38;101494.50;;;5.07;78.04
66176;BME280;52977;44.816;20.538;2023-02-15T06:25:05;101490.41;;;5.04;77.88
66176;BME280;52977;44.816;20.538;2023-02-15T06:27:31;101483.09;;;5.05;77.89
66176;BME280;52977;44.816;20.538;2023-02-15T06:29:57;101410.09;;;4.52;78.12
66176;BME280;52977;44.816;20.538;2023-02-15T06:32:23;101487.78;;;5.09;77.90
66176;BME280;52977;44.816;20.538;2023-02-15T06:34:50;101473.97;;;4.94;78.05
66176;BME280;52977;44.816;20.538;2023-02-15T06:37:16;101482.28;;;5.04;78.42
66176;BME280;52977;44.816;20.538;2023-02-15T06:39:42;101495.06;;;5.09;78.38
66176;BME280;52977;44.816;20.538;2023-02-15T06:42:08;101492.13;;;5.10;78.18
66176;BME280;52977;44.816;20.538;2023-02-15T06:44:34;101465.84;;;4.94;78.52
66176;BME280;52977;44.816;20.538;2023-02-15T06:47:00;101442.25;;;4.77;78.61
66176;BME280;52977;44.816;20.538;2023-02-15T06:49:27;101496.25;;;5.13;78.56
66176;BME280;52977;44.816;20.538;2023-02-15T06:51:53;101468.38;;;5.01;78.10
66176;BME280;52977;44.816;20.538;2023-02-15T06:54:22;101495.50;;;5.18;78.44
66176;BME280;52977;44.816;20.538;2023-02-15T06:56:48;101473.56;;;5.02;78.33
66176;BME280;52977;44.816;20.538;2023-02-15T06:59:14;101490.28;;;4.99;78.85
66176;BME280;52977;44.816;20.538;2023-02-15T07:01:40;101486.38;;;5.07;78.17
66176;BME280;52977;44.816;20.538;2023-02-15T07:04:07;101508.22;;;5.17;78.84
66176;BME280;52977;44.816;20.538;2023-02-15T07:06:33;101463.72;;;4.96;78.27
66176;BME280;52977;44.816;20.538;2023-02-15T07:09:00;101494.31;;;5.25;78.21
66176;BME280;52977;44.816;20.538;2023-02-15T07:11:26;101448.66;;;4.88;78.76
66176;BME280;52977;44.816;20.538;2023-02-15T07:14:10;101498.31;;;5.23;78.46
66176;BME280;52977;44.816;20.538;2023-02-15T07:16:38;101467.94;;;5.04;78.30
66176;BME280;52977;44.816;20.538;2023-02-15T07:19:04;101465.22;;;5.04;79.09
66176;BME280;52977;44.816;20.538;2023-02-15T07:21:31;101500.09;;;5.17;79.37
66176;BME280;52977;44.816;20.538;2023-02-15T07:23:57;101462.91;;;4.95;78.49
66176;BME280;52977;44.816;20.538;2023-02-15T07:26:24;101504.72;;;5.17;79.09
66176;BME280;52977;44.816;20.538;2023-02-15T07:28:51;101499.53;;;5.15;79.27
66176;BME280;52977;44.816;20.538;2023-02-15T07:31:17;101514.91;;;5.26;79.03
66176;BME280;52977;44.816;20.538;2023-02-15T07:33:43;101440.88;;;4.63;79.49
66176;BME280;52977;44.816;20.538;2023-02-15T07:36:10;101496.00;;;5.14;79.24
66176;BME280;52977;44.816;20.538;2023-02-15T07:38:39;101502.91;;;5.22;78.31
66176;BME280;52977;44.816;20.538;2023-02-15T07:41:10;101423.16;;;4.55;78.77
66176;BME280;52977;44.816;20.538;2023-02-15T07:43:39;101498.13;;;5.12;79.05
66176;BME280;52977;44.816;20.538;2023-02-15T07:46:08;101426.34;;;4.81;78.62
66176;BME280;52977;44.816;20.538;2023-02-15T07:48:36;101474.09;;;5.16;78.43
66176;BME280;52977;44.816;20.538;2023-02-15T07:51:04;101460.13;;;5.07;78.41
66176;BME280;52977;44.816;20.538;2023-02-15T07:53:31;101504.53;;;5.52;77.67
66176;BME280;52977;44.816;20.538;2023-02-15T07:56:01;101508.63;;;5.55;76.64
66176;BME280;52977;44.816;20.538;2023-02-15T07:58:27;101500.28;;;5.56;76.82
66176;BME280;52977;44.816;20.538;2023-02-15T08:01:12;101464.69;;;5.36;76.44
66176;BME280;52977;44.816;20.538;2023-02-15T08:03:38;101479.25;;;5.46;76.23
66176;BME280;52977;44.816;20.538;2023-02-15T08:06:05;101501.84;;;5.69;75.98
66176;BME280;52977;44.816;20.538;2023-02-15T08:08:33;101506.94;;;5.65;75.97
66176;BME280;52977;44.816;20.538;2023-02-15T08:11:18;101499.91;;;5.36;77.03
66176;BME280;52977;44.816;20.538;2023-02-15T08:13:58;101462.31;;;4.93;77.01
66176;BME280;52977;44.816;20.538;2023-02-15T08:16:41;101442.34;;;4.83;76.68
66176;BME280;52977;44.816;20.538;2023-02-15T08:19:10;101505.09;;;5.37;75.78
66176;BME280;52977;44.816;20.538;2023-02-15T08:21:39;101492.28;;;5.50;73.66
66176;BME280;52977;44.816;20.538;2023-02-15T08:24:07;101461.53;;;5.39;73.43
66176;BME280;52977;44.816;20.538;2023-02-15T08:26:34;101499.72;;;5.71;72.95
66176;BME280;52977;44.816;20.538;2023-02-15T08:29:01;101496.63;;;5.34;74.12
66176;BME280;52977;44.816;20.538;2023-02-15T08:31:28;101509.81;;;5.59;74.17
66176;BME280;52977;44.816;20.538;2023-02-15T08:33:56;101505.38;;;5.53;74.75
66176;BME280;52977;44.816;20.538;2023-02-15T08:36:24;101483.25;;;5.44;73.90
66176;BME280;52977;44.816;20.538;2023-02-15T08:38:51;101507.34;;;5.57;74.71
66176;BME280;52977;44.816;20.538;2023-02-15T08:43:51;101497.50;;;5.68;74.67
66176;BME280;52977;44.816;20.538;2023-02-15T08:46:17;101505.53;;;5.63;74.90
66176;BME280;52977;44.816;20.538;2023-02-15T08:48:44;101503.06;;;5.61;75.26
66176;BME280;52977;44.816;20.538;2023-02-15T08:51:18;101416.50;;;5.04;75.32
66176;BME280;52977;44.816;20.538;2023-02-15T08:53:48;101505.44;;;5.58;75.11
66176;BME280;52977;44.816;20.538;2023-02-15T08:56:17;101510.34;;;5.61;74.96
66176;BME280;52977;44.816;20.538;2023-02-15T08:58:44;101467.56;;;5.29;75.33
66176;BME280;52977;44.816;20.538;2023-02-15T09:01:18;101475.31;;;5.37;75.61
66176;BME280;52977;44.816;20.538;2023-02-15T09:03:48;101493.84;;;5.45;75.54
66176;BME280;52977;44.816;20.538;2023-02-15T09:06:19;101491.13;;;5.45;75.57
66176;BME280;52977;44.816;20.538;2023-02-15T09:08:46;101504.09;;;5.43;75.98
66176;BME280;52977;44.816;20.538;2023-02-15T09:11:23;101514.31;;;5.53;75.35
66176;BME280;52977;44.816;20.538;2023-02-15T09:13:52;101512.34;;;5.65;75.28
66176;BME280;52977;44.816;20.538;2023-02-15T09:16:21;101425.69;;;5.03;74.73
66176;BME280;52977;44.816;20.538;2023-02-15T09:18:48;101441.44;;;5.23;73.74
66176;BME280;52977;44.816;20.538;2023-02-15T09:21:17;101507.03;;;5.71;73.71
66176;BME280;52977;44.816;20.538;2023-02-15T09:23:46;101500.53;;;5.72;73.05
66176;BME280;52977;44.816;20.538;2023-02-15T09:26:17;101489.13;;;5.70;73.09
66176;BME280;52977;44.816;20.538;2023-02-15T09:28:43;101487.63;;;5.79;72.78
66176;BME280;52977;44.816;20.538;2023-02-15T09:31:16;101503.69;;;5.97;72.12
66176;BME280;52977;44.816;20.538;2023-02-15T09:33:43;101476.63;;;5.86;72.09
66176;BME280;52977;44.816;20.538;2023-02-15T09:36:18;101407.00;;;5.52;71.06
66176;BME280;52977;44.816;20.538;2023-02-15T09:38:46;101511.00;;;6.14;71.59
66176;BME280;52977;44.816;20.538;2023-02-15T09:41:46;101497.25;;;6.21;70.86
66176;BME280;52977;44.816;20.538;2023-02-15T10:15:22;101470.81;;;6.50;64.58
66176;BME280;52977;44.816;20.538;2023-02-15T10:20:52;101464.91;;;6.53;65.42
66176;BME280;52977;44.816;20.538;2023-02-15T10:26:17;101422.16;;;6.21;66.99
66176;BME280;52977;44.816;20.538;2023-02-15T10:31:28;101442.66;;;6.78;65.17
66176;BME280;52977;44.816;20.538;2023-02-15T10:34:16;101449.97;;;6.78;64.34
66176;BME280;52977;44.816;20.538;2023-02-15T10:45:04;101428.69;;;6.92;64.17
66176;BME280;52977;44.816;20.538;2023-02-15T10:50:32;101420.81;;;6.90;63.45
66176;BME280;52977;44.816;20.538;2023-02-15T11:01:42;101384.78;;;6.73;63.22
66176;BME280;52977;44.816;20.538;2023-02-15T11:07:20;101396.97;;;6.97;62.83
66176;BME280;52977;44.816;20.538;2023-02-15T11:10:38;101388.34;;;7.00;62.79
66176;BME280;52977;44.816;20.538;2023-02-15T11:12:37;101327.91;;;6.83;62.20
66176;BME280;52977;44.816;20.538;2023-02-15T11:15:23;101348.69;;;6.99;62.57
66176;BME280;52977;44.816;20.538;2023-02-15T11:23:24;101379.16;;;7.39;61.61
66176;BME280;52977;44.816;20.538;2023-02-15T11:25:56;101407.81;;;7.57;61.36
66176;BME280;52977;44.816;20.538;2023-02-15T11:28:49;101376.75;;;7.48;61.08
66176;BME280;52977;44.816;20.538;2023-02-15T11:31:20;101353.38;;;7.42;60.93
66176;BME280;52977;44.816;20.538;2023-02-15T11:33:53;101335.13;;;7.37;60.80
66176;BME280;52977;44.816;20.538;2023-02-15T11:36:26;101347.66;;;7.43;61.35
66176;BME280;52977;44.816;20.538;2023-02-15T11:39:02;101371.69;;;7.57;61.02
66176;BME280;52977;44.816;20.538;2023-02-15T11:41:34;101382.13;;;7.38;62.04
66176;BME280;52977;44.816;20.538;2023-02-15T11:46:30;101318.63;;;7.11;62.56
66176;BME280;52977;44.816;20.538;2023-02-15T11:48:56;101350.38;;;7.43;61.69
66176;BME280;52977;44.816;20.538;2023-02-15T11:51:25;101342.28;;;7.48;61.81
66176;BME280;52977;44.816;20.538;2023-02-15T11:53:53;101267.00;;;7.06;60.79
66176;BME280;52977;44.816;20.538;2023-02-15T11:56:22;101347.81;;;7.64;60.99
66176;BME280;52977;44.816;20.538;2023-02-15T11:59:08;101281.81;;;7.31;60.72
66176;BME280;52977;44.816;20.538;2023-02-15T12:01:39;101337.47;;;7.61;60.70
66176;BME280;52977;44.816;20.538;2023-02-15T12:12:34;101328.53;;;7.65;60.85
66176;BME280;52977;44.816;20.538;2023-02-15T12:15:04;101279.47;;;7.40;60.19
66176;BME280;52977;44.816;20.538;2023-02-15T12:20:27;101311.91;;;7.62;59.71
66176;BME280;52977;44.816;20.538;2023-02-15T12:23:10;101332.22;;;7.92;59.62
66176;BME280;52977;44.816;20.538;2023-02-15T12:30:58;101316.06;;;8.38;58.97
66176;BME280;52977;44.816;20.538;2023-02-15T12:33:34;101321.97;;;8.14;58.75
66176;BME280;52977;44.816;20.538;2023-02-15T12:38:36;101310.88;;;8.26;58.64
66176;BME280;52977;44.816;20.538;2023-02-15T12:41:26;101280.03;;;8.05;58.85
66176;BME280;52977;44.816;20.538;2023-02-15T12:44:15;101292.34;;;8.28;58.60
66176;BME280;52977;44.816;20.538;2023-02-15T12:46:56;101227.56;;;8.04;58.20
66176;BME280;52977;44.816;20.538;2023-02-15T12:49:23;101283.44;;;8.43;58.03
66176;BME280;52977;44.816;20.538;2023-02-15T12:51:52;101290.84;;;8.68;57.46
66176;BME280;52977;44.816;20.538;2023-02-15T12:56:51;101238.03;;;8.64;57.16
66176;BME280;52977;44.816;20.538;2023-02-15T12:59:18;101184.13;;;8.46;56.60
66176;BME280;52977;44.816;20.538;2023-02-15T13:01:52;101284.56;;;9.30;55.95
66176;BME280;52977;44.816;20.538;2023-02-15T13:04:27;101253.81;;;8.83;56.40
66176;BME280;52977;44.816;20.538;2023-02-15T13:07:02;101277.78;;;9.12;56.62
66176;BME280;52977;44.816;20.538;2023-02-15T13:12:25;101279.16;;;9.09;56.73
66176;BME280;52977;44.816;20.538;2023-02-15T13:14:59;101271.78;;;8.99;56.42
66176;BME280;52977;44.816;20.538;2023-02-15T13:17:32;101276.69;;;9.02;56.54
66176;BME280;52977;44.816;20.538;2023-02-15T13:20:17;101273.97;;;9.02;56.42
66176;BME280;52977;44.816;20.538;2023-02-15T13:22:46;101273.16;;;8.92;57.05
66176;BME280;52977;44.816;20.538;2023-02-15T13:25:19;101261.44;;;8.96;56.19
66176;BME280;52977;44.816;20.538;2023-02-15T13:27:57;101266.91;;;8.96;56.92
66176;BME280;52977;44.816;20.538;2023-02-15T13:30:32;101268.25;;;9.09;56.30
66176;BME280;52977;44.816;20.538;2023-02-15T13:33:06;101230.38;;;8.82;56.97
66176;BME280;52977;44.816;20.538;2023-02-15T13:36:14;101254.91;;;9.02;56.30
66176;BME280;52977;44.816;20.538;2023-02-15T13:38:52;101262.53;;;9.16;56.31
66176;BME280;52977;44.816;20.538;2023-02-15T13:41:27;101278.88;;;8.90;56.73
66176;BME280;52977;44.816;20.538;2023-02-15T13:51:34;101265.25;;;8.95;57.07
66176;BME280;52977;44.816;20.538;2023-02-15T13:57:22;101257.06;;;9.05;57.20
66176;BME280;52977;44.816;20.538;2023-02-15T14:00:20;101260.34;;;9.07;56.75
66176;BME280;52977;44.816;20.538;2023-02-15T14:12:07;101248.91;;;8.54;57.97
66176;BME280;52977;44.816;20.538;2023-02-15T14:20:01;101251.63;;;8.64;58.86
66176;BME280;52977;44.816;20.538;2023-02-15T14:22:44;101237.50;;;8.78;59.06
66176;BME280;52977;44.816;20.538;2023-02-15T14:25:25;101227.69;;;8.77;57.42
66176;BME280;52977;44.816;20.538;2023-02-15T14:30:37;101154.16;;;8.10;57.77
66176;BME280;52977;44.816;20.538;2023-02-15T14:35:41;101241.03;;;8.78;58.38
66176;BME280;52977;44.816;20.538;2023-02-15T14:41:05;101245.09;;;8.70;58.10
66176;BME280;52977;44.816;20.538;2023-02-15T14:46:47;101215.41;;;8.43;58.63
66176;BME280;52977;44.816;20.538;2023-02-15T14:49:25;101132.91;;;7.91;58.51
66176;BME280;52977;44.816;20.538;2023-02-15T14:52:11;101240.75;;;8.49;59.42
66176;BME280;52977;44.816;20.538;2023-02-15T14:59:43;101234.22;;;8.50;60.02
66176;BME280;52977;44.816;20.538;2023-02-15T15:02:30;101156.28;;;7.92;59.84
66176;BME280;52977;44.816;20.538;2023-02-15T15:05:20;101246.13;;;8.33;60.54
66176;BME280;52977;44.816;20.538;2023-02-15T15:07:53;101245.81;;;8.25;61.08
66176;BME280;52977;44.816;20.538;2023-02-15T15:12:47;101242.53;;;8.17;61.41
66176;BME280;52977;44.816;20.538;2023-02-15T15:20:47;101250.16;;;8.15;61.16
66176;BME280;52977;44.816;20.538;2023-02-15T15:42:01;101224.81;;;7.99;62.90
66176;BME280;52977;44.816;20.538;2023-02-15T15:45:08;101230.84;;;8.12;62.38
66176;BME280;52977;44.816;20.538;2023-02-15T15:50:19;101228.63;;;8.03;62.40
66176;BME280;52977;44.816;20.538;2023-02-15T15:52:51;101162.09;;;7.43;63.29
66176;BME280;52977;44.816;20.538;2023-02-15T15:55:23;101144.63;;;7.28;63.62
66176;BME280;52977;44.816;20.538;2023-02-15T15:57:58;101235.13;;;7.87;63.80
66176;BME280;52977;44.816;20.538;2023-02-15T16:00:39;101232.38;;;7.82;63.34
66176;BME280;52977;44.816;20.538;2023-02-15T16:03:35;101190.72;;;7.61;64.02
66176;BME280;52977;44.816;20.538;2023-02-15T16:06:02;101228.91;;;7.97;63.83
66176;BME280;52977;44.816;20.538;2023-02-15T16:10:57;101238.41;;;7.94;64.25
66176;BME280;52977;44.816;20.538;2023-02-15T16:13:24;101238.09;;;7.85;64.74
66176;BME280;52977;44.816;20.538;2023-02-15T16:15:54;101220.91;;;7.69;65.08
66176;BME280;52977;44.816;20.538;2023-02-15T16:18:24;101200.75;;;7.60;65.33
66176;BME280;52977;44.816;20.538;2023-02-15T16:21:01;101231.53;;;7.76;64.81
66176;BME280;52977;44.816;20.538;2023-02-15T16:29:14;101220.94;;;7.75;65.16
66176;BME280;52977;44.816;20.538;2023-02-15T16:31:41;101229.66;;;7.82;65.09
66176;BME280;52977;44.816;20.538;2023-02-15T16:34:16;101220.38;;;7.73;65.18
66176;BME280;52977;44.816;20.538;2023-02-15T16:36:46;101223.91;;;7.68;64.70
66176;BME280;52977;44.816;20.538;2023-02-15T16:39:19;101214.66;;;7.69;64.89
66176;BME280;52977;44.816;20.538;2023-02-15T16:41:47;101223.09;;;7.73;65.56
66176;BME280;52977;44.816;20.538;2023-02-15T16:44:19;101202.66;;;7.60;65.60